createdAt,value
2018-03-27T00:00:09.430Z,113.67
2018-03-27T00:02:36.866Z,93.53
2018-03-27T00:05:04.290Z,100.47
2018-03-27T00:07:31.726Z,104.90
2018-03-27T00:09:59.145Z,107.07
2018-03-27T00:12:26.587Z,110.13
2018-03-27T00:14:53.999Z,117.82
2018-03-27T00:17:21.446Z,121.47
2018-03-27T00:19:49.354Z,134.20
2018-03-27T00:22:16.800Z,168.07
2018-03-27T00:24:44.220Z,147.57
2018-03-27T00:27:11.099Z,156.00
2018-03-27T00:29:50.265Z,156.10
2018-03-27T00:32:29.518Z,167.87
2018-03-27T00:35:08.646Z,170.43
2018-03-27T00:37:47.911Z,167.03
2018-03-27T00:40:27.034Z,157.43
2018-03-27T00:42:54.491Z,146.03
2018-03-27T00:45:21.918Z,154.15
2018-03-27T00:47:50.172Z,148.38
2018-03-27T00:50:17.597Z,143.73
2018-03-27T00:52:45.012Z,151.60
2018-03-27T00:55:12.431Z,129.87
2018-03-27T00:57:39.854Z,141.07
2018-03-27T01:00:07.278Z,112.30
2018-03-27T01:02:34.689Z,124.93
2018-03-27T01:05:07.579Z,124.47
2018-03-27T01:07:34.988Z,119.03
2018-03-27T01:10:02.418Z,129.93
2018-03-27T01:12:29.834Z,127.10
2018-03-27T01:14:57.257Z,131.23
2018-03-27T01:17:24.675Z,155.97
2018-03-27T01:19:52.112Z,130.23
2018-03-27T01:22:19.538Z,145.97
2018-03-27T01:24:46.959Z,164.43
2018-03-27T01:27:14.388Z,153.57
2018-03-27T01:29:41.801Z,138.07
2018-03-27T01:32:09.226Z,159.70
2018-03-27T01:34:36.646Z,163.37
2018-03-27T01:37:04.068Z,166.13
2018-03-27T01:39:31.489Z,150.10
2018-03-27T01:41:58.912Z,139.13
2018-03-27T01:44:26.331Z,128.67
2018-03-27T01:46:53.750Z,144.62
2018-03-27T01:49:22.052Z,181.05
2018-03-27T01:51:49.477Z,159.97
2018-03-27T01:54:16.894Z,146.50
2018-03-27T01:56:44.325Z,147.73
2018-03-27T01:59:11.743Z,138.43
2018-03-27T02:01:39.158Z,158.67
2018-03-27T02:04:06.623Z,164.57
2018-03-27T02:06:34.037Z,156.53
2018-03-27T02:09:01.459Z,167.37
2018-03-27T02:11:34.490Z,173.10
2018-03-27T02:14:07.610Z,162.17
2018-03-27T02:16:40.579Z,164.10
2018-03-27T02:19:13.674Z,171.80
2018-03-27T02:21:40.530Z,167.90
2018-03-27T02:27:09.999Z,178.73
2018-03-27T02:29:37.419Z,188.10
2018-03-27T02:32:04.871Z,202.53
2018-03-27T02:34:32.290Z,160.20
2018-03-27T02:36:59.716Z,188.63
2018-03-27T02:39:27.142Z,193.87
2018-03-27T02:41:54.561Z,194.05
2018-03-27T02:44:21.999Z,159.67
2018-03-27T02:46:49.427Z,215.60
2018-03-27T02:49:16.860Z,175.52
2018-03-27T02:51:44.279Z,185.77
2018-03-27T02:54:11.814Z,211.50
2018-03-27T02:56:39.225Z,211.87
2018-03-27T02:59:06.652Z,192.13
2018-03-27T03:01:34.059Z,150.27
2018-03-27T03:04:01.481Z,147.80
2018-03-27T03:06:28.907Z,164.40
2018-03-27T03:08:56.355Z,183.93
2018-03-27T03:11:24.682Z,189.35
2018-03-27T03:13:52.102Z,157.60
2018-03-27T03:16:19.518Z,213.70
2018-03-27T03:18:46.941Z,231.03
2018-03-27T03:21:14.372Z,192.40
2018-03-27T03:23:41.819Z,200.23
2018-03-27T03:26:09.226Z,191.90
2018-03-27T03:28:36.647Z,225.50
2018-03-27T03:31:04.090Z,211.90
2018-03-27T03:33:31.498Z,190.97
2018-03-27T03:35:58.925Z,180.43
2018-03-27T03:38:26.357Z,183.73
2018-03-27T03:40:53.783Z,209.40
2018-03-27T03:43:21.256Z,196.10
2018-03-27T03:45:48.685Z,206.63
2018-03-27T03:48:16.098Z,206.77
2018-03-27T03:50:43.522Z,198.70
2018-03-27T03:53:10.938Z,182.65
2018-03-27T03:55:38.461Z,188.67
2018-03-27T03:58:05.875Z,161.67
2018-03-27T04:00:33.295Z,184.40
2018-03-27T04:03:00.702Z,175.07
2018-03-27T04:05:28.203Z,210.63
2018-03-27T04:07:56.514Z,187.68
2018-03-27T04:10:24.002Z,191.17
2018-03-27T04:12:51.415Z,213.37
2018-03-27T04:15:18.845Z,191.37
2018-03-27T04:17:46.270Z,193.20
2018-03-27T04:20:13.691Z,189.30
2018-03-27T04:22:41.130Z,175.53
2018-03-27T04:25:08.555Z,165.33
2018-03-27T04:27:35.982Z,191.37
2018-03-27T04:30:03.400Z,166.80
2018-03-27T04:32:30.818Z,151.10
2018-03-27T04:34:58.239Z,151.20
2018-03-27T04:37:25.662Z,155.70
2018-03-27T04:39:53.081Z,151.10
2018-03-27T04:42:20.502Z,124.55
2018-03-27T04:44:47.934Z,132.40
2018-03-27T04:47:15.353Z,120.63
2018-03-27T04:49:42.776Z,137.10
2018-03-27T04:52:10.206Z,123.97
2018-03-27T04:54:37.648Z,137.83
2018-03-27T04:57:05.061Z,152.40
2018-03-27T04:59:32.487Z,142.68
2018-03-27T05:01:59.909Z,148.52
2018-03-27T05:04:28.232Z,157.32
2018-03-27T05:06:55.659Z,137.37
2018-03-27T05:09:23.085Z,148.57
2018-03-27T05:11:50.510Z,140.80
2018-03-27T05:14:17.930Z,152.40
2018-03-27T05:16:45.357Z,138.37
2018-03-27T05:19:12.775Z,131.87
2018-03-27T05:21:40.200Z,133.80
2018-03-27T05:24:07.612Z,128.53
2018-03-27T05:26:35.039Z,148.83
2018-03-27T05:29:02.446Z,140.77
2018-03-27T05:31:29.995Z,126.43
2018-03-27T05:33:57.414Z,145.83
2018-03-27T05:36:24.843Z,140.00
2018-03-27T05:38:52.255Z,148.65
2018-03-27T05:41:19.670Z,133.90
2018-03-27T05:43:47.087Z,134.23
2018-03-27T05:46:14.513Z,140.13
2018-03-27T05:48:41.938Z,143.60
2018-03-27T05:51:09.367Z,143.77
2018-03-27T05:53:36.782Z,139.12
2018-03-27T05:56:04.265Z,149.10
2018-03-27T05:58:31.627Z,146.83
2018-03-27T06:00:59.043Z,136.67
2018-03-27T06:03:26.470Z,130.03
2018-03-27T06:05:53.877Z,129.47
2018-03-27T06:08:21.307Z,140.25
2018-03-27T06:10:48.739Z,129.40
2018-03-27T06:13:16.161Z,134.23
2018-03-27T06:15:43.606Z,131.95
2018-03-27T06:18:11.030Z,110.13
2018-03-27T06:20:38.446Z,121.50
2018-03-27T06:23:05.871Z,118.53
2018-03-27T06:25:33.281Z,117.30
2018-03-27T06:28:01.105Z,101.80
2018-03-27T06:30:28.518Z,107.93
2018-03-27T06:32:55.930Z,97.57
2018-03-27T06:35:23.342Z,82.30
2018-03-27T06:37:50.771Z,97.73
2018-03-27T06:40:18.166Z,82.33
2018-03-27T06:42:45.602Z,93.50
2018-03-27T06:45:13.014Z,93.37
2018-03-27T06:47:40.525Z,88.27
2018-03-27T06:50:07.871Z,89.33
2018-03-27T06:52:35.291Z,74.50
2018-03-27T06:55:02.706Z,69.23
2018-03-27T06:57:30.112Z,58.10
2018-03-27T06:59:57.531Z,66.67
2018-03-27T07:02:24.951Z,63.57
2018-03-27T07:04:52.370Z,74.30
2018-03-27T07:07:19.843Z,66.37
2018-03-27T07:09:47.229Z,75.00
2018-03-27T07:12:14.695Z,69.10
2018-03-27T07:14:42.134Z,58.00
2018-03-27T07:17:09.558Z,75.87
2018-03-27T07:19:36.999Z,67.07
2018-03-27T07:22:04.410Z,66.57
2018-03-27T07:24:31.835Z,64.67
2018-03-27T07:26:59.259Z,69.63
2018-03-27T07:29:26.671Z,66.43
2018-03-27T07:31:54.080Z,63.70
2018-03-27T07:34:21.499Z,70.07
2018-03-27T07:36:48.916Z,67.30
2018-03-27T07:39:16.331Z,62.47
2018-03-27T07:41:43.757Z,55.87
2018-03-27T07:44:11.184Z,65.87
2018-03-27T07:46:38.585Z,69.47
2018-03-27T07:49:06.022Z,63.10
2018-03-27T07:51:34.142Z,47.75
2018-03-27T07:54:01.572Z,59.20
2018-03-27T07:56:29.049Z,70.17
2018-03-27T07:58:56.482Z,54.60
2018-03-27T08:01:23.902Z,57.10
2018-03-27T08:03:51.316Z,57.60
2018-03-27T08:06:18.744Z,63.73
2018-03-27T08:08:46.162Z,57.73
2018-03-27T08:11:13.578Z,53.53
2018-03-27T08:13:40.994Z,64.87
2018-03-27T08:16:08.402Z,58.20
2018-03-27T08:18:35.826Z,63.33
2018-03-27T08:21:03.247Z,63.55
2018-03-27T08:23:30.675Z,55.80
2018-03-27T08:25:58.099Z,60.70
2018-03-27T08:28:25.506Z,60.72
2018-03-27T08:30:52.922Z,57.73
2018-03-27T08:33:20.343Z,59.47
2018-03-27T08:35:47.799Z,58.53
2018-03-27T08:38:15.205Z,55.50
2018-03-27T08:40:42.636Z,52.23
2018-03-27T08:43:10.072Z,54.92
2018-03-27T08:45:37.519Z,55.93
2018-03-27T08:48:05.535Z,57.53
2018-03-27T08:50:32.958Z,58.00
2018-03-27T08:53:00.365Z,51.40
2018-03-27T08:55:27.792Z,45.67
2018-03-27T08:57:55.194Z,47.33
2018-03-27T09:00:22.618Z,44.10
2018-03-27T09:02:50.069Z,46.37
2018-03-27T09:05:17.503Z,42.40
2018-03-27T09:07:44.903Z,45.13
2018-03-27T09:10:12.334Z,44.85
2018-03-27T09:12:39.747Z,44.77
2018-03-27T09:15:07.617Z,45.88
2018-03-27T09:17:35.171Z,47.37
2018-03-27T09:20:02.634Z,40.70
2018-03-27T09:22:30.195Z,42.40
2018-03-27T09:24:57.658Z,44.23
2018-03-27T09:27:25.187Z,48.83
2018-03-27T09:29:52.719Z,45.37
2018-03-27T09:32:20.676Z,43.20
2018-03-27T09:34:48.543Z,42.40
2018-03-27T09:37:17.876Z,43.03
2018-03-27T09:39:45.603Z,36.80
2018-03-27T09:42:13.093Z,41.22
2018-03-27T09:44:40.555Z,45.10
2018-03-27T09:47:09.178Z,35.25
2018-03-27T09:49:36.792Z,41.00
2018-03-27T09:52:04.316Z,42.20
2018-03-27T09:54:31.771Z,38.80
2018-03-27T09:56:59.218Z,38.53
2018-03-27T09:59:26.634Z,40.47
2018-03-27T10:01:54.045Z,43.27
2018-03-27T10:04:21.459Z,29.17
2018-03-27T10:06:48.887Z,31.43
2018-03-27T10:09:16.297Z,31.67
2018-03-27T10:11:43.740Z,30.17
2018-03-27T10:14:11.195Z,33.97
2018-03-27T10:16:38.654Z,29.23
2018-03-27T10:19:06.078Z,31.07
2018-03-27T10:21:33.505Z,31.03
2018-03-27T10:24:00.927Z,27.23
2018-03-27T10:26:28.353Z,26.90
2018-03-27T10:28:55.814Z,25.83
2018-03-27T10:31:23.240Z,25.73
2018-03-27T10:33:50.659Z,27.50
2018-03-27T10:36:18.073Z,28.90
2018-03-27T10:38:45.481Z,21.87
2018-03-27T10:41:12.915Z,25.27
2018-03-27T10:43:40.911Z,24.17
2018-03-27T10:46:08.332Z,24.58
2018-03-27T10:48:35.750Z,22.27
2018-03-27T10:51:03.176Z,23.63
2018-03-27T10:53:30.605Z,24.77
2018-03-27T10:55:58.188Z,21.40
2018-03-27T10:58:25.605Z,29.23
2018-03-27T11:00:53.022Z,24.47
2018-03-27T11:03:20.454Z,25.40
2018-03-27T11:05:48.260Z,26.03
2018-03-27T11:08:15.686Z,21.37
2018-03-27T11:10:43.101Z,20.63
2018-03-27T11:13:10.563Z,27.83
2018-03-27T11:15:37.977Z,21.57
2018-03-27T11:18:05.609Z,22.10
2018-03-27T11:20:33.031Z,24.13
2018-03-27T11:23:00.508Z,24.70
2018-03-27T11:25:28.170Z,24.17
2018-03-27T11:27:55.591Z,18.87
2018-03-27T11:30:23.022Z,24.77
2018-03-27T11:32:50.444Z,20.87
2018-03-27T11:35:17.856Z,21.55
2018-03-27T11:37:45.278Z,23.63
2018-03-27T11:40:12.809Z,24.53
2018-03-27T11:42:40.356Z,20.17
2018-03-27T11:45:07.766Z,22.37
2018-03-27T11:47:35.201Z,21.35
2018-03-27T11:50:02.615Z,22.57
2018-03-27T11:52:30.269Z,22.75
2018-03-27T11:54:57.681Z,22.00
2018-03-27T11:57:25.225Z,25.63
2018-03-27T11:59:52.812Z,19.93
2018-03-27T12:02:20.342Z,17.47
2018-03-27T12:04:47.768Z,19.37
2018-03-27T12:07:15.422Z,24.00
2018-03-27T12:09:42.838Z,21.73
2018-03-27T12:12:10.264Z,22.50
2018-03-27T12:14:37.674Z,20.10
2018-03-27T12:17:05.090Z,19.20
2018-03-27T12:19:32.534Z,20.40
2018-03-27T12:21:59.960Z,16.25
2018-03-27T12:24:27.384Z,18.50
2018-03-27T12:26:54.791Z,20.10
2018-03-27T12:29:22.210Z,21.23
2018-03-27T12:31:49.627Z,21.93
2018-03-27T12:34:17.050Z,16.70
2018-03-27T12:36:44.483Z,18.63
2018-03-27T12:39:11.926Z,18.57
2018-03-27T12:41:39.376Z,19.43
2018-03-27T12:44:06.810Z,15.80
2018-03-27T12:46:34.231Z,17.80
2018-03-27T12:49:01.664Z,19.67
2018-03-27T12:51:29.095Z,17.20
2018-03-27T12:53:56.526Z,12.10
2018-03-27T12:56:23.984Z,18.63
2018-03-27T12:58:51.497Z,14.57
2018-03-27T13:01:19.013Z,11.83
2018-03-27T13:03:47.547Z,11.48
2018-03-27T13:06:14.955Z,10.03
2018-03-27T13:08:42.447Z,11.07
2018-03-27T13:11:09.870Z,12.93
2018-03-27T13:13:37.346Z,14.23
2018-03-27T13:16:04.798Z,12.60
2018-03-27T13:18:32.230Z,12.63
2018-03-27T13:20:59.646Z,12.48
2018-03-27T13:23:27.091Z,15.23
2018-03-27T13:25:54.544Z,13.80
2018-03-27T13:28:21.969Z,14.03
2018-03-27T13:30:49.389Z,16.60
2018-03-27T13:33:16.835Z,12.67
2018-03-27T13:35:44.246Z,17.83
2018-03-27T13:38:11.705Z,16.27
2018-03-27T13:40:39.129Z,17.33
2018-03-27T13:43:06.547Z,15.57
2018-03-27T13:45:33.993Z,18.10
2018-03-27T13:48:01.525Z,13.60
2018-03-27T13:50:28.983Z,17.47
2018-03-27T13:52:56.618Z,15.40
2018-03-27T13:55:24.035Z,20.50
2018-03-27T13:57:51.453Z,17.50
2018-03-27T14:00:19.019Z,16.13
2018-03-27T14:02:46.398Z,18.43
2018-03-27T14:05:13.830Z,17.92
2018-03-27T14:07:41.250Z,17.07
2018-03-27T14:10:08.679Z,16.70
2018-03-27T14:12:36.137Z,17.73
2018-03-27T14:15:03.590Z,16.93
2018-03-27T14:17:30.970Z,18.70
2018-03-27T14:19:58.403Z,18.87
2018-03-27T14:22:25.825Z,16.87
2018-03-27T14:24:53.276Z,24.07
2018-03-27T14:27:20.679Z,17.93
2018-03-27T14:29:48.118Z,21.53
2018-03-27T14:32:15.531Z,16.83
2018-03-27T14:34:43.005Z,18.43
2018-03-27T14:37:10.427Z,15.57
2018-03-27T14:39:37.850Z,18.00
2018-03-27T14:42:05.271Z,14.13
2018-03-27T14:44:32.752Z,16.80
2018-03-27T14:47:00.116Z,17.40
2018-03-27T14:49:27.546Z,18.20
2018-03-27T14:51:54.971Z,14.80
2018-03-27T14:54:22.412Z,14.30
2018-03-27T14:56:50.534Z,12.55
2018-03-27T14:59:17.947Z,12.30
2018-03-27T15:01:45.361Z,15.33
2018-03-27T15:04:12.815Z,10.27
2018-03-27T15:06:40.341Z,10.40
2018-03-27T15:09:07.759Z,11.20
2018-03-27T15:11:35.396Z,12.83
2018-03-27T15:14:02.795Z,14.43
2018-03-27T15:16:30.479Z,11.23
2018-03-27T15:18:57.897Z,11.70
2018-03-27T15:21:25.315Z,10.95
2018-03-27T15:23:52.718Z,12.03
2018-03-27T15:26:20.136Z,9.57
2018-03-27T15:28:47.542Z,13.93
2018-03-27T15:31:14.989Z,10.30
2018-03-27T15:33:42.411Z,11.50
2018-03-27T15:36:09.814Z,9.27
2018-03-27T15:38:37.241Z,11.90
2018-03-27T15:41:04.655Z,9.17
2018-03-27T15:43:32.117Z,12.45
2018-03-27T15:45:59.554Z,12.73
2018-03-27T15:48:26.973Z,11.07
2018-03-27T15:50:54.394Z,9.10
2018-03-27T15:53:22.366Z,13.30
2018-03-27T15:55:49.778Z,17.13
2018-03-27T15:58:18.017Z,11.87
2018-03-27T16:00:45.429Z,11.00
2018-03-27T16:03:12.843Z,9.37
2018-03-27T16:05:40.265Z,9.97
2018-03-27T16:08:07.702Z,11.75
2018-03-27T16:10:35.129Z,10.20
2018-03-27T16:13:02.562Z,12.03
2018-03-27T16:15:30.058Z,13.82
2018-03-27T16:17:57.505Z,12.33
2018-03-27T16:20:24.984Z,14.80
2018-03-27T16:22:53.399Z,10.97
2018-03-27T16:25:20.806Z,17.57
2018-03-27T16:27:48.230Z,13.60
2018-03-27T16:30:15.642Z,14.70
2018-03-27T16:32:43.703Z,11.30
2018-03-27T16:35:11.498Z,13.37
2018-03-27T16:37:38.954Z,13.07
2018-03-27T16:40:06.464Z,12.33
2018-03-27T16:42:34.061Z,13.13
2018-03-27T16:45:01.882Z,12.47
2018-03-27T16:47:29.368Z,17.23
2018-03-27T16:49:56.765Z,10.33
2018-03-27T16:52:24.183Z,11.33
2018-03-27T16:54:51.606Z,12.10
2018-03-27T16:57:19.029Z,11.87
2018-03-27T16:59:46.453Z,15.48
2018-03-27T17:02:13.878Z,16.62
2018-03-27T17:04:41.294Z,17.20
2018-03-27T17:07:08.715Z,16.73
2018-03-27T17:09:53.611Z,13.07
2018-03-27T17:12:21.071Z,12.50
2018-03-27T17:14:48.489Z,14.53
2018-03-27T17:17:15.902Z,13.35
2018-03-27T17:19:43.338Z,12.93
2018-03-27T17:22:10.751Z,13.67
2018-03-27T17:24:38.185Z,13.68
2018-03-27T17:27:05.629Z,13.37
2018-03-27T17:29:33.056Z,17.63
2018-03-27T17:32:00.474Z,16.23
2018-03-27T17:34:27.970Z,13.93
2018-03-27T17:36:55.839Z,14.77
2018-03-27T17:39:23.271Z,15.63
2018-03-27T17:41:51.236Z,16.47
2018-03-27T17:44:18.642Z,13.37
2018-03-27T17:46:46.190Z,15.00
2018-03-27T17:49:13.650Z,24.83
2018-03-27T17:51:41.072Z,12.00
2018-03-27T17:54:08.497Z,16.10
2018-03-27T17:56:35.926Z,13.47
2018-03-27T17:59:03.351Z,11.60
2018-03-27T18:01:30.774Z,11.90
2018-03-27T18:03:58.254Z,14.03
2018-03-27T18:06:25.658Z,16.67
2018-03-27T18:08:53.066Z,12.80
2018-03-27T18:11:20.486Z,12.50
2018-03-27T18:13:47.913Z,12.57
2018-03-27T18:16:15.327Z,11.87
2018-03-27T18:18:42.735Z,12.60
2018-03-27T18:21:10.247Z,12.90
2018-03-27T18:23:37.663Z,14.43
2018-03-27T18:26:05.074Z,13.67
2018-03-27T18:28:32.578Z,17.00
2018-03-27T18:31:00.057Z,14.07
2018-03-27T18:33:27.879Z,16.77
2018-03-27T18:35:55.293Z,15.00
2018-03-27T18:38:22.784Z,14.73
2018-03-27T18:40:50.164Z,14.93
2018-03-27T18:43:17.583Z,14.97
2018-03-27T18:45:45.027Z,17.67
2018-03-27T18:48:12.503Z,13.90
2018-03-27T18:50:39.954Z,16.83
2018-03-27T18:53:07.361Z,15.25
2018-03-27T18:55:34.844Z,17.43
2018-03-27T18:58:02.248Z,17.57
2018-03-27T19:00:29.788Z,13.73
2018-03-27T19:03:01.492Z,19.00
2018-03-27T19:08:08.824Z,21.13
2018-03-27T19:10:41.582Z,22.77
2018-03-27T19:13:15.162Z,16.86
2018-03-27T19:15:47.158Z,17.15
2018-03-27T19:18:14.735Z,17.37
2018-03-27T19:20:42.187Z,19.42
2018-03-27T19:23:09.733Z,24.60
2018-03-27T19:25:38.045Z,22.77
2018-03-27T19:28:06.064Z,26.57
2018-03-27T19:30:33.503Z,21.07
2018-03-27T19:33:01.739Z,18.70
2018-03-27T19:35:30.718Z,20.80
2018-03-27T19:37:58.202Z,20.40
2018-03-27T19:40:27.441Z,20.33
2018-03-27T19:42:54.941Z,23.33
2018-03-27T19:45:22.533Z,19.33
2018-03-27T19:47:50.757Z,21.57
2018-03-27T19:50:18.470Z,19.80
2018-03-27T19:52:45.924Z,22.47
2018-03-27T19:55:16.271Z,20.10
2018-03-27T19:57:43.804Z,23.20
2018-03-27T20:00:11.221Z,19.77
2018-03-27T20:02:40.609Z,23.20
2018-03-27T20:05:09.547Z,21.83
2018-03-27T20:07:37.617Z,22.17
2018-03-27T20:10:05.557Z,24.63
2018-03-27T20:12:33.006Z,20.20
2018-03-27T20:15:00.526Z,22.63
2018-03-27T20:17:27.946Z,24.93
2018-03-27T20:19:56.411Z,22.43
2018-03-27T20:22:24.426Z,21.40
2018-03-27T20:24:51.846Z,21.00
2018-03-27T20:27:22.165Z,21.25
2018-03-27T20:29:50.858Z,23.63
2018-03-27T20:32:22.336Z,29.13
2018-03-27T20:34:49.760Z,21.67
2018-03-27T20:37:21.530Z,22.77
2018-03-27T20:39:50.008Z,21.60
2018-03-27T20:42:18.738Z,23.73
2018-03-27T20:44:55.460Z,21.37
2018-03-27T20:47:22.881Z,26.47
2018-03-27T20:49:50.314Z,27.40
2018-03-27T20:52:17.739Z,23.53
2018-03-27T20:54:45.149Z,22.07
2018-03-27T20:57:12.958Z,27.90
2018-03-27T20:59:40.393Z,24.30
2018-03-27T21:02:07.796Z,26.08
2018-03-27T21:04:35.226Z,29.10
2018-03-27T21:07:03.312Z,26.27
2018-03-27T21:09:30.739Z,25.07
2018-03-27T21:11:58.155Z,24.57
2018-03-27T21:14:25.578Z,24.30
2018-03-27T21:16:53.001Z,25.27
2018-03-27T21:19:20.416Z,30.57
2018-03-27T21:21:47.823Z,25.97
2018-03-27T21:24:15.246Z,25.90
2018-03-27T21:26:42.660Z,25.37
2018-03-27T21:29:10.091Z,24.10
2018-03-27T21:31:38.078Z,26.13
2018-03-27T21:34:05.512Z,26.60
2018-03-27T21:36:32.931Z,21.20
2018-03-27T21:39:00.358Z,24.30
2018-03-27T21:41:27.766Z,24.87
2018-03-27T21:43:55.203Z,23.23
2018-03-27T21:46:22.607Z,27.27
2018-03-27T21:48:50.022Z,25.73
2018-03-27T21:51:17.446Z,24.40
2018-03-27T21:53:44.860Z,23.40
2018-03-27T21:56:12.277Z,26.93
2018-03-27T21:58:39.978Z,26.67
2018-03-27T22:02:37.901Z,22.67
2018-03-27T22:05:05.489Z,26.30
2018-03-27T22:07:32.890Z,24.43
2018-03-27T22:10:00.310Z,26.47
2018-03-27T22:12:27.731Z,23.07
2018-03-27T22:14:55.152Z,21.83
2018-03-27T22:17:22.559Z,30.83
2018-03-27T22:19:49.999Z,22.20
2018-03-27T22:22:17.408Z,21.13
2018-03-27T22:24:44.851Z,22.83
2018-03-27T22:27:12.286Z,21.53
2018-03-27T22:29:39.698Z,20.60
2018-03-27T22:32:07.139Z,21.70
2018-03-27T22:34:34.564Z,19.40
2018-03-27T22:37:02.017Z,20.27
2018-03-27T22:39:29.420Z,16.50
2018-03-27T22:41:56.825Z,19.57
2018-03-27T22:44:24.236Z,18.50
2018-03-27T22:46:51.649Z,22.53
2018-03-27T22:49:19.078Z,18.55
2018-03-27T22:51:46.487Z,19.07
2018-03-27T22:54:13.897Z,16.43
2018-03-27T22:56:41.314Z,13.85
2018-03-27T22:59:08.738Z,14.90
2018-03-27T23:01:36.154Z,14.43
2018-03-27T23:04:03.568Z,16.07
2018-03-27T23:06:30.978Z,16.70
2018-03-27T23:08:58.378Z,13.30
2018-03-27T23:11:25.934Z,17.77
2018-03-27T23:13:53.382Z,14.87
2018-03-27T23:16:20.789Z,13.30
2018-03-27T23:18:48.272Z,12.20
2018-03-27T23:21:15.700Z,12.43
2018-03-27T23:23:43.104Z,10.23
2018-03-27T23:26:10.511Z,10.37
2018-03-27T23:28:38.879Z,10.75
2018-03-27T23:31:06.286Z,12.00
2018-03-27T23:33:33.683Z,9.40
2018-03-27T23:36:01.089Z,8.40
2018-03-27T23:38:28.493Z,10.00
2018-03-27T23:40:55.898Z,8.47
2018-03-27T23:43:23.303Z,7.90
2018-03-27T23:45:50.822Z,7.87
2018-03-27T23:48:18.234Z,8.00
2018-03-27T23:50:45.633Z,10.33
2018-03-27T23:53:13.037Z,10.07
2018-03-27T23:55:40.441Z,8.00
2018-03-27T23:58:07.847Z,6.20
